sensor_id;sensor_type;location;lat;lon;timestamp;temperature;humidity
67901;DHT22;54700;51.796;10.956;2023-08-31T00:00:40;13.50;99.10
67901;DHT22;54700;51.796;10.956;2023-08-31T00:03:10;13.50;99.30
67901;DHT22;54700;51.796;10.956;2023-08-31T00:05:40;13.40;99.90
67901;DHT22;54700;51.796;10.956;2023-08-31T00:08:07;13.40;99.90
67901;DHT22;54700;51.796;10.956;2023-08-31T00:10:35;13.40;99.30
67901;DHT22;54700;51.796;10.956;2023-08-31T00:13:02;13.40;99.30
67901;DHT22;54700;51.796;10.956;2023-08-31T00:15:30;13.50;99.00
67901;DHT22;54700;51.796;10.956;2023-08-31T00:17:58;13.50;98.90
67901;DHT22;54700;51.796;10.956;2023-08-31T00:20:26;13.50;98.90
67901;DHT22;54700;51.796;10.956;2023-08-31T00:22:55;13.40;98.80
67901;DHT22;54700;51.796;10.956;2023-08-31T00:25:22;13.40;99.20
67901;DHT22;54700;51.796;10.956;2023-08-31T00:27:49;13.40;98.80
67901;DHT22;54700;51.796;10.956;2023-08-31T00:30:18;13.40;98.80
67901;DHT22;54700;51.796;10.956;2023-08-31T00:32:45;13.40;99.00
67901;DHT22;54700;51.796;10.956;2023-08-31T00:35:12;13.40;98.70
67901;DHT22;54700;51.796;10.956;2023-08-31T00:37:40;13.40;98.70
67901;DHT22;54700;51.796;10.956;2023-08-31T00:40:08;13.40;98.60
67901;DHT22;54700;51.796;10.956;2023-08-31T00:42:39;13.30;98.10
67901;DHT22;54700;51.796;10.956;2023-08-31T00:45:06;13.30;98.30
67901;DHT22;54700;51.796;10.956;2023-08-31T00:47:33;13.30;98.20
67901;DHT22;54700;51.796;10.956;2023-08-31T00:50:01;13.30;98.30
67901;DHT22;54700;51.796;10.956;2023-08-31T00:52:28;13.20;98.20
67901;DHT22;54700;51.796;10.956;2023-08-31T00:54:56;13.20;98.10
67901;DHT22;54700;51.796;10.956;2023-08-31T00:57:26;13.20;98.10
67901;DHT22;54700;51.796;10.956;2023-08-31T00:59:53;13.20;98.00
67901;DHT22;54700;51.796;10.956;2023-08-31T01:02:22;13.20;98.20
67901;DHT22;54700;51.796;10.956;2023-08-31T01:04:58;13.20;98.50
67901;DHT22;54700;51.796;10.956;2023-08-31T01:07:32;13.20;98.30
67901;DHT22;54700;51.796;10.956;2023-08-31T01:10:10;13.10;98.50
67901;DHT22;54700;51.796;10.956;2023-08-31T01:12:46;13.10;98.60
67901;DHT22;54700;51.796;10.956;2023-08-31T01:15:18;13.10;98.50
67901;DHT22;54700;51.796;10.956;2023-08-31T01:17:47;13.10;98.60
67901;DHT22;54700;51.796;10.956;2023-08-31T01:20:19;13.20;98.70
67901;DHT22;54700;51.796;10.956;2023-08-31T01:22:55;13.20;98.00
67901;DHT22;54700;51.796;10.956;2023-08-31T01:25:28;13.20;97.80
67901;DHT22;54700;51.796;10.956;2023-08-31T01:27:56;13.20;97.50
67901;DHT22;54700;51.796;10.956;2023-08-31T01:30:24;13.30;97.10
67901;DHT22;54700;51.796;10.956;2023-08-31T01:32:51;13.30;97.20
67901;DHT22;54700;51.796;10.956;2023-08-31T01:35:18;13.30;97.10
67901;DHT22;54700;51.796;10.956;2023-08-31T01:37:46;13.30;97.00
67901;DHT22;54700;51.796;10.956;2023-08-31T01:40:18;13.30;97.30
67901;DHT22;54700;51.796;10.956;2023-08-31T01:42:49;13.40;97.40
67901;DHT22;54700;51.796;10.956;2023-08-31T01:45:18;13.40;97.10
67901;DHT22;54700;51.796;10.956;2023-08-31T01:47:46;13.40;97.00
67901;DHT22;54700;51.796;10.956;2023-08-31T01:50:13;13.40;96.90
67901;DHT22;54700;51.796;10.956;2023-08-31T01:52:40;13.40;96.90
67901;DHT22;54700;51.796;10.956;2023-08-31T01:55:07;13.30;96.70
67901;DHT22;54700;51.796;10.956;2023-08-31T01:57:34;13.30;96.30
67901;DHT22;54700;51.796;10.956;2023-08-31T02:00:02;13.30;96.60
67901;DHT22;54700;51.796;10.956;2023-08-31T02:02:31;13.30;97.00
67901;DHT22;54700;51.796;10.956;2023-08-31T02:04:58;13.30;97.40
67901;DHT22;54700;51.796;10.956;2023-08-31T02:07:26;13.20;98.00
67901;DHT22;54700;51.796;10.956;2023-08-31T02:09:53;13.20;98.10
67901;DHT22;54700;51.796;10.956;2023-08-31T02:12:20;13.10;98.20
67901;DHT22;54700;51.796;10.956;2023-08-31T02:14:47;13.10;98.10
67901;DHT22;54700;51.796;10.956;2023-08-31T02:17:16;13.10;99.20
67901;DHT22;54700;51.796;10.956;2023-08-31T02:19:43;13.10;99.40
67901;DHT22;54700;51.796;10.956;2023-08-31T02:22:10;13.00;99.90
67901;DHT22;54700;51.796;10.956;2023-08-31T02:24:37;13.00;99.90
67901;DHT22;54700;51.796;10.956;2023-08-31T02:27:04;13.00;99.90
67901;DHT22;54700;51.796;10.956;2023-08-31T02:29:31;13.00;99.90
67901;DHT22;54700;51.796;10.956;2023-08-31T02:31:58;13.00;99.90
67901;DHT22;54700;51.796;10.956;2023-08-31T02:34:26;12.90;99.90
67901;DHT22;54700;51.796;10.956;2023-08-31T02:36:53;12.90;99.90
67901;DHT22;54700;51.796;10.956;2023-08-31T02:39:20;12.90;99.90
67901;DHT22;54700;51.796;10.956;2023-08-31T02:41:47;12.90;99.90
67901;DHT22;54700;51.796;10.956;2023-08-31T02:44:14;12.90;98.70
67901;DHT22;54700;51.796;10.956;2023-08-31T02:46:41;12.90;96.50
67901;DHT22;54700;51.796;10.956;2023-08-31T02:49:07;12.90;96.50
67901;DHT22;54700;51.796;10.956;2023-08-31T02:51:36;12.90;96.90
67901;DHT22;54700;51.796;10.956;2023-08-31T02:54:03;12.80;97.90
67901;DHT22;54700;51.796;10.956;2023-08-31T02:56:29;12.80;98.90
67901;DHT22;54700;51.796;10.956;2023-08-31T02:58:56;12.70;98.70
67901;DHT22;54700;51.796;10.956;2023-08-31T03:01:23;12.60;98.50
67901;DHT22;54700;51.796;10.956;2023-08-31T03:03:50;12.50;98.60
67901;DHT22;54700;51.796;10.956;2023-08-31T03:06:17;12.50;98.10
67901;DHT22;54700;51.796;10.956;2023-08-31T03:08:45;12.60;97.60
67901;DHT22;54700;51.796;10.956;2023-08-31T03:11:12;12.50;97.30
67901;DHT22;54700;51.796;10.956;2023-08-31T03:13:41;12.50;97.30
67901;DHT22;54700;51.796;10.956;2023-08-31T03:16:08;12.50;97.40
67901;DHT22;54700;51.796;10.956;2023-08-31T03:18:35;12.50;97.30
67901;DHT22;54700;51.796;10.956;2023-08-31T03:21:02;12.50;97.30
67901;DHT22;54700;51.796;10.956;2023-08-31T03:23:29;12.50;97.40
67901;DHT22;54700;51.796;10.956;2023-08-31T03:25:57;12.50;96.80
67901;DHT22;54700;51.796;10.956;2023-08-31T03:28:24;12.50;96.60
67901;DHT22;54700;51.796;10.956;2023-08-31T03:30:54;12.40;97.00
67901;DHT22;54700;51.796;10.956;2023-08-31T03:33:21;12.40;97.50
67901;DHT22;54700;51.796;10.956;2023-08-31T03:35:48;12.40;97.30
67901;DHT22;54700;51.796;10.956;2023-08-31T03:38:15;12.30;97.00
67901;DHT22;54700;51.796;10.956;2023-08-31T03:40:42;12.30;97.10
67901;DHT22;54700;51.796;10.956;2023-08-31T03:43:11;12.30;97.00
67901;DHT22;54700;51.796;10.956;2023-08-31T03:45:37;12.30;97.00
67901;DHT22;54700;51.796;10.956;2023-08-31T03:48:04;12.30;96.10
67901;DHT22;54700;51.796;10.956;2023-08-31T03:50:31;12.30;96.40
67901;DHT22;54700;51.796;10.956;2023-08-31T03:52:58;12.30;96.80
67901;DHT22;54700;51.796;10.956;2023-08-31T03:55:25;12.20;96.80
67901;DHT22;54700;51.796;10.956;2023-08-31T03:57:52;12.20;96.90
67901;DHT22;54700;51.796;10.956;2023-08-31T04:00:20;12.20;97.20
67901;DHT22;54700;51.796;10.956;2023-08-31T04:02:47;12.10;97.50
67901;DHT22;54700;51.796;10.956;2023-08-31T04:05:14;12.10;98.00
67901;DHT22;54700;51.796;10.956;2023-08-31T04:07:41;12.10;98.10
67901;DHT22;54700;51.796;10.956;2023-08-31T04:10:08;12.00;97.90
67901;DHT22;54700;51.796;10.956;2023-08-31T04:12:35;12.00;98.40
67901;DHT22;54700;51.796;10.956;2023-08-31T04:15:02;11.90;98.20
67901;DHT22;54700;51.796;10.956;2023-08-31T04:17:31;11.90;98.10
67901;DHT22;54700;51.796;10.956;2023-08-31T04:19:58;11.90;98.50
67901;DHT22;54700;51.796;10.956;2023-08-31T04:22:25;11.90;98.20
67901;DHT22;54700;51.796;10.956;2023-08-31T04:24:52;11.90;98.00
67901;DHT22;54700;51.796;10.956;2023-08-31T04:27:19;11.90;98.10
67901;DHT22;54700;51.796;10.956;2023-08-31T04:29:46;11.90;98.70
67901;DHT22;54700;51.796;10.956;2023-08-31T04:32:15;12.00;98.30
67901;DHT22;54700;51.796;10.956;2023-08-31T04:34:43;12.00;98.60
67901;DHT22;54700;51.796;10.956;2023-08-31T04:37:09;12.10;98.30
67901;DHT22;54700;51.796;10.956;2023-08-31T04:39:36;12.10;97.80
67901;DHT22;54700;51.796;10.956;2023-08-31T04:42:03;12.20;97.70
67901;DHT22;54700;51.796;10.956;2023-08-31T04:44:30;12.20;97.40
67901;DHT22;54700;51.796;10.956;2023-08-31T04:46:57;12.20;97.40
67901;DHT22;54700;51.796;10.956;2023-08-31T04:49:24;12.20;97.20
67901;DHT22;54700;51.796;10.956;2023-08-31T04:51:53;12.20;97.40
67901;DHT22;54700;51.796;10.956;2023-08-31T04:54:20;12.30;97.10
67901;DHT22;54700;51.796;10.956;2023-08-31T04:56:47;12.20;97.20
67901;DHT22;54700;51.796;10.956;2023-08-31T04:59:14;12.20;97.40
67901;DHT22;54700;51.796;10.956;2023-08-31T05:01:41;12.20;97.80
67901;DHT22;54700;51.796;10.956;2023-08-31T05:04:07;12.20;97.60
67901;DHT22;54700;51.796;10.956;2023-08-31T05:06:34;12.20;97.40
67901;DHT22;54700;51.796;10.956;2023-08-31T05:09:03;12.20;96.90
67901;DHT22;54700;51.796;10.956;2023-08-31T05:11:33;12.20;96.70
67901;DHT22;54700;51.796;10.956;2023-08-31T05:14:00;12.20;96.60
67901;DHT22;54700;51.796;10.956;2023-08-31T05:16:27;12.20;96.40
67901;DHT22;54700;51.796;10.956;2023-08-31T05:18:53;12.20;96.00
67901;DHT22;54700;51.796;10.956;2023-08-31T05:21:20;12.30;95.50
67901;DHT22;54700;51.796;10.956;2023-08-31T05:23:48;12.30;95.70
67901;DHT22;54700;51.796;10.956;2023-08-31T05:26:16;12.40;94.90
67901;DHT22;54700;51.796;10.956;2023-08-31T05:28:43;12.50;94.70
67901;DHT22;54700;51.796;10.956;2023-08-31T05:31:10;12.50;94.50
67901;DHT22;54700;51.796;10.956;2023-08-31T05:33:37;12.50;94.60
67901;DHT22;54700;51.796;10.956;2023-08-31T05:36:04;12.60;94.80
67901;DHT22;54700;51.796;10.956;2023-08-31T05:38:34;12.60;94.70
67901;DHT22;54700;51.796;10.956;2023-08-31T05:41:04;12.70;94.60
67901;DHT22;54700;51.796;10.956;2023-08-31T05:43:34;12.70;94.10
67901;DHT22;54700;51.796;10.956;2023-08-31T05:46:01;12.70;93.30
67901;DHT22;54700;51.796;10.956;2023-08-31T05:48:29;12.80;92.80
67901;DHT22;54700;51.796;10.956;2023-08-31T05:50:56;12.90;92.30
67901;DHT22;54700;51.796;10.956;2023-08-31T05:53:26;13.00;92.90
67901;DHT22;54700;51.796;10.956;2023-08-31T05:56:17;13.10;92.30
67901;DHT22;54700;51.796;10.956;2023-08-31T05:58:46;13.30;92.10
67901;DHT22;54700;51.796;10.956;2023-08-31T06:01:15;13.40;91.80
67901;DHT22;54700;51.796;10.956;2023-08-31T06:03:43;13.40;91.30
67901;DHT22;54700;51.796;10.956;2023-08-31T06:06:09;13.50;91.10
67901;DHT22;54700;51.796;10.956;2023-08-31T06:08:37;13.70;90.50
67901;DHT22;54700;51.796;10.956;2023-08-31T06:11:08;13.80;89.00
67901;DHT22;54700;51.796;10.956;2023-08-31T06:13:35;13.80;91.10
67901;DHT22;54700;51.796;10.956;2023-08-31T06:16:03;13.80;91.60
67901;DHT22;54700;51.796;10.956;2023-08-31T06:18:31;13.70;92.30
67901;DHT22;54700;51.796;10.956;2023-08-31T06:20:58;13.70;92.20
67901;DHT22;54700;51.796;10.956;2023-08-31T06:23:26;13.50;90.70
67901;DHT22;54700;51.796;10.956;2023-08-31T06:25:53;13.20;91.20
67901;DHT22;54700;51.796;10.956;2023-08-31T06:28:20;13.00;91.00
67901;DHT22;54700;51.796;10.956;2023-08-31T06:30:48;12.90;91.50
67901;DHT22;54700;51.796;10.956;2023-08-31T06:33:16;12.70;93.20
67901;DHT22;54700;51.796;10.956;2023-08-31T06:35:45;12.60;93.60
67901;DHT22;54700;51.796;10.956;2023-08-31T06:38:13;12.40;95.50
67901;DHT22;54700;51.796;10.956;2023-08-31T06:40:41;12.30;96.10
67901;DHT22;54700;51.796;10.956;2023-08-31T06:43:08;12.10;96.40
67901;DHT22;54700;51.796;10.956;2023-08-31T06:45:35;12.10;96.40
67901;DHT22;54700;51.796;10.956;2023-08-31T06:48:02;12.10;96.20
67901;DHT22;54700;51.796;10.956;2023-08-31T06:50:34;12.10;96.40
67901;DHT22;54700;51.796;10.956;2023-08-31T06:53:02;12.10;96.10
67901;DHT22;54700;51.796;10.956;2023-08-31T06:55:30;12.20;95.70
67901;DHT22;54700;51.796;10.956;2023-08-31T06:57:59;12.20;95.60
67901;DHT22;54700;51.796;10.956;2023-08-31T07:00:26;12.30;95.20
67901;DHT22;54700;51.796;10.956;2023-08-31T07:02:53;12.50;95.10
67901;DHT22;54700;51.796;10.956;2023-08-31T07:05:24;12.50;94.80
67901;DHT22;54700;51.796;10.956;2023-08-31T07:07:53;12.70;94.90
67901;DHT22;54700;51.796;10.956;2023-08-31T07:10:20;12.90;93.60
67901;DHT22;54700;51.796;10.956;2023-08-31T07:12:47;13.10;93.10
67901;DHT22;54700;51.796;10.956;2023-08-31T07:15:14;13.30;92.30
67901;DHT22;54700;51.796;10.956;2023-08-31T07:17:41;13.40;93.20
67901;DHT22;54700;51.796;10.956;2023-08-31T07:20:08;13.50;92.50
67901;DHT22;54700;51.796;10.956;2023-08-31T07:22:36;13.50;92.00
67901;DHT22;54700;51.796;10.956;2023-08-31T07:25:06;13.60;91.50
67901;DHT22;54700;51.796;10.956;2023-08-31T07:27:33;13.70;92.20
67901;DHT22;54700;51.796;10.956;2023-08-31T07:30:00;13.90;91.50
67901;DHT22;54700;51.796;10.956;2023-08-31T07:32:28;14.00;90.80
67901;DHT22;54700;51.796;10.956;2023-08-31T07:34:55;14.10;91.20
67901;DHT22;54700;51.796;10.956;2023-08-31T07:37:22;14.20;90.30
67901;DHT22;54700;51.796;10.956;2023-08-31T07:39:49;14.20;91.10
67901;DHT22;54700;51.796;10.956;2023-08-31T07:42:28;14.20;91.30
67901;DHT22;54700;51.796;10.956;2023-08-31T07:44:56;14.20;92.10
67901;DHT22;54700;51.796;10.956;2023-08-31T07:47:25;14.10;91.80
67901;DHT22;54700;51.796;10.956;2023-08-31T07:49:52;14.00;92.20
67901;DHT22;54700;51.796;10.956;2023-08-31T07:52:22;13.90;92.40
67901;DHT22;54700;51.796;10.956;2023-08-31T07:54:49;13.90;92.60
67901;DHT22;54700;51.796;10.956;2023-08-31T07:57:15;13.90;92.50
67901;DHT22;54700;51.796;10.956;2023-08-31T07:59:44;13.90;92.60
67901;DHT22;54700;51.796;10.956;2023-08-31T08:02:11;14.10;92.10
67901;DHT22;54700;51.796;10.956;2023-08-31T08:04:38;14.20;91.20
67901;DHT22;54700;51.796;10.956;2023-08-31T08:07:05;14.30;90.90
67901;DHT22;54700;51.796;10.956;2023-08-31T08:09:34;14.40;90.70
67901;DHT22;54700;51.796;10.956;2023-08-31T08:12:01;14.40;90.60
67901;DHT22;54700;51.796;10.956;2023-08-31T08:14:28;14.50;89.80
67901;DHT22;54700;51.796;10.956;2023-08-31T08:16:57;14.50;90.00
67901;DHT22;54700;51.796;10.956;2023-08-31T08:19:23;14.50;90.20
67901;DHT22;54700;51.796;10.956;2023-08-31T08:21:50;14.60;89.50
67901;DHT22;54700;51.796;10.956;2023-08-31T08:24:18;14.60;90.50
67901;DHT22;54700;51.796;10.956;2023-08-31T08:26:45;14.60;89.30
67901;DHT22;54700;51.796;10.956;2023-08-31T08:29:12;14.60;89.20
67901;DHT22;54700;51.796;10.956;2023-08-31T08:31:39;14.60;89.40
67901;DHT22;54700;51.796;10.956;2023-08-31T08:34:07;14.70;88.70
67901;DHT22;54700;51.796;10.956;2023-08-31T08:36:34;14.60;87.40
67901;DHT22;54700;51.796;10.956;2023-08-31T08:39:01;14.50;86.80
67901;DHT22;54700;51.796;10.956;2023-08-31T08:41:29;14.50;88.60
67901;DHT22;54700;51.796;10.956;2023-08-31T08:43:56;14.60;88.10
67901;DHT22;54700;51.796;10.956;2023-08-31T08:46:28;14.70;88.00
67901;DHT22;54700;51.796;10.956;2023-08-31T08:48:57;14.80;87.90
67901;DHT22;54700;51.796;10.956;2023-08-31T08:51:28;14.90;87.10
67901;DHT22;54700;51.796;10.956;2023-08-31T08:53:56;14.90;85.20
67901;DHT22;54700;51.796;10.956;2023-08-31T08:56:26;14.90;84.50
67901;DHT22;54700;51.796;10.956;2023-08-31T08:58:53;14.90;85.10
67901;DHT22;54700;51.796;10.956;2023-08-31T09:01:20;15.00;87.20
67901;DHT22;54700;51.796;10.956;2023-08-31T09:03:49;15.20;84.30
67901;DHT22;54700;51.796;10.956;2023-08-31T09:06:19;15.40;82.40
67901;DHT22;54700;51.796;10.956;2023-08-31T09:08:54;15.60;80.90
67901;DHT22;54700;51.796;10.956;2023-08-31T09:11:22;15.80;78.30
67901;DHT22;54700;51.796;10.956;2023-08-31T09:13:49;15.90;75.70
67901;DHT22;54700;51.796;10.956;2023-08-31T09:16:26;16.10;78.80
67901;DHT22;54700;51.796;10.956;2023-08-31T09:18:54;16.20;76.60
67901;DHT22;54700;51.796;10.956;2023-08-31T09:21:22;16.20;76.30
67901;DHT22;54700;51.796;10.956;2023-08-31T09:23:57;16.30;76.90
67901;DHT22;54700;51.796;10.956;2023-08-31T09:26:24;16.40;74.90
67901;DHT22;54700;51.796;10.956;2023-08-31T09:28:51;16.50;72.00
67901;DHT22;54700;51.796;10.956;2023-08-31T09:31:18;16.60;71.50
67901;DHT22;54700;51.796;10.956;2023-08-31T09:33:49;16.60;71.30
67901;DHT22;54700;51.796;10.956;2023-08-31T09:36:17;16.70;71.50
67901;DHT22;54700;51.796;10.956;2023-08-31T09:38:47;16.50;72.10
67901;DHT22;54700;51.796;10.956;2023-08-31T09:41:17;16.40;71.70
67901;DHT22;54700;51.796;10.956;2023-08-31T09:43:44;16.30;71.70
67901;DHT22;54700;51.796;10.956;2023-08-31T09:46:12;16.20;72.20
67901;DHT22;54700;51.796;10.956;2023-08-31T09:48:41;16.40;74.60
67901;DHT22;54700;51.796;10.956;2023-08-31T09:51:12;16.60;74.10
67901;DHT22;54700;51.796;10.956;2023-08-31T09:53:42;16.70;74.70
67901;DHT22;54700;51.796;10.956;2023-08-31T09:56:17;16.70;74.00
67901;DHT22;54700;51.796;10.956;2023-08-31T09:58:48;16.70;72.00
67901;DHT22;54700;51.796;10.956;2023-08-31T10:01:16;16.60;71.70
67901;DHT22;54700;51.796;10.956;2023-08-31T10:03:43;16.50;73.10
67901;DHT22;54700;51.796;10.956;2023-08-31T10:06:11;16.40;73.20
67901;DHT22;54700;51.796;10.956;2023-08-31T10:08:40;16.40;73.10
67901;DHT22;54700;51.796;10.956;2023-08-31T10:11:08;16.30;73.50
67901;DHT22;54700;51.796;10.956;2023-08-31T10:13:43;16.30;74.00
67901;DHT22;54700;51.796;10.956;2023-08-31T10:16:13;16.20;72.80
67901;DHT22;54700;51.796;10.956;2023-08-31T10:18:42;16.30;73.90
67901;DHT22;54700;51.796;10.956;2023-08-31T10:21:09;16.20;71.40
67901;DHT22;54700;51.796;10.956;2023-08-31T10:23:36;16.30;70.40
67901;DHT22;54700;51.796;10.956;2023-08-31T10:26:10;16.30;68.60
67901;DHT22;54700;51.796;10.956;2023-08-31T10:28:41;16.40;69.20
67901;DHT22;54700;51.796;10.956;2023-08-31T10:31:10;16.30;69.60
67901;DHT22;54700;51.796;10.956;2023-08-31T10:33:42;16.30;68.80
67901;DHT22;54700;51.796;10.956;2023-08-31T10:36:11;16.30;69.50
67901;DHT22;54700;51.796;10.956;2023-08-31T10:38:40;16.40;71.30
67901;DHT22;54700;51.796;10.956;2023-08-31T10:41:21;16.40;69.80
67901;DHT22;54700;51.796;10.956;2023-08-31T10:43:51;16.40;70.70
67901;DHT22;54700;51.796;10.956;2023-08-31T10:46:24;16.50;70.20
67901;DHT22;54700;51.796;10.956;2023-08-31T10:48:53;16.50;69.80
67901;DHT22;54700;51.796;10.956;2023-08-31T10:51:22;16.50;69.60
67901;DHT22;54700;51.796;10.956;2023-08-31T10:53:49;16.40;67.90
67901;DHT22;54700;51.796;10.956;2023-08-31T10:56:16;16.40;67.70
67901;DHT22;54700;51.796;10.956;2023-08-31T10:58:55;16.40;68.90
67901;DHT22;54700;51.796;10.956;2023-08-31T11:04:20;16.60;69.80
67901;DHT22;54700;51.796;10.956;2023-08-31T11:06:47;16.80;70.30
67901;DHT22;54700;51.796;10.956;2023-08-31T11:09:18;16.90;74.20
67901;DHT22;54700;51.796;10.956;2023-08-31T11:11:46;16.80;77.10
67901;DHT22;54700;51.796;10.956;2023-08-31T11:14:15;16.30;78.70
67901;DHT22;54700;51.796;10.956;2023-08-31T11:16:42;16.20;82.40
67901;DHT22;54700;51.796;10.956;2023-08-31T11:19:10;16.10;86.80
67901;DHT22;54700;51.796;10.956;2023-08-31T11:21:37;16.20;85.30
67901;DHT22;54700;51.796;10.956;2023-08-31T11:24:04;16.20;84.00
67901;DHT22;54700;51.796;10.956;2023-08-31T11:26:31;16.10;82.10
67901;DHT22;54700;51.796;10.956;2023-08-31T11:28:58;16.00;83.10
67901;DHT22;54700;51.796;10.956;2023-08-31T11:31:26;16.00;84.00
67901;DHT22;54700;51.796;10.956;2023-08-31T11:33:54;15.90;84.00
67901;DHT22;54700;51.796;10.956;2023-08-31T11:36:21;15.70;83.10
67901;DHT22;54700;51.796;10.956;2023-08-31T11:38:48;15.60;85.30
67901;DHT22;54700;51.796;10.956;2023-08-31T11:41:15;15.50;85.10
67901;DHT22;54700;51.796;10.956;2023-08-31T11:43:42;15.30;86.30
67901;DHT22;54700;51.796;10.956;2023-08-31T11:46:11;15.20;85.60
67901;DHT22;54700;51.796;10.956;2023-08-31T11:48:39;15.10;83.80
67901;DHT22;54700;51.796;10.956;2023-08-31T11:51:10;15.00;82.00
67901;DHT22;54700;51.796;10.956;2023-08-31T11:53:37;15.00;84.00
67901;DHT22;54700;51.796;10.956;2023-08-31T11:56:05;14.90;84.30
67901;DHT22;54700;51.796;10.956;2023-08-31T11:58:31;14.80;85.70
67901;DHT22;54700;51.796;10.956;2023-08-31T12:00:58;14.70;86.50
67901;DHT22;54700;51.796;10.956;2023-08-31T12:03:27;14.60;88.60
67901;DHT22;54700;51.796;10.956;2023-08-31T12:05:55;14.60;88.40
67901;DHT22;54700;51.796;10.956;2023-08-31T12:08:24;14.50;90.20
67901;DHT22;54700;51.796;10.956;2023-08-31T12:10:51;14.40;90.20
67901;DHT22;54700;51.796;10.956;2023-08-31T12:13:18;14.30;91.00
67901;DHT22;54700;51.796;10.956;2023-08-31T12:15:46;14.20;91.20
67901;DHT22;54700;51.796;10.956;2023-08-31T12:18:14;14.10;92.00
67901;DHT22;54700;51.796;10.956;2023-08-31T12:20:44;13.90;92.80
67901;DHT22;54700;51.796;10.956;2023-08-31T12:23:13;13.90;93.50
67901;DHT22;54700;51.796;10.956;2023-08-31T12:25:45;13.60;92.00
67901;DHT22;54700;51.796;10.956;2023-08-31T12:28:13;13.60;93.80
67901;DHT22;54700;51.796;10.956;2023-08-31T12:30:41;13.60;93.50
67901;DHT22;54700;51.796;10.956;2023-08-31T12:33:09;13.50;93.20
67901;DHT22;54700;51.796;10.956;2023-08-31T12:35:36;13.50;93.20
67901;DHT22;54700;51.796;10.956;2023-08-31T12:38:03;13.60;92.20
67901;DHT22;54700;51.796;10.956;2023-08-31T12:40:32;13.70;92.30
67901;DHT22;54700;51.796;10.956;2023-08-31T12:42:59;13.80;92.60
67901;DHT22;54700;51.796;10.956;2023-08-31T12:45:26;14.00;92.00
67901;DHT22;54700;51.796;10.956;2023-08-31T12:47:53;14.10;91.80
67901;DHT22;54700;51.796;10.956;2023-08-31T12:50:19;14.30;91.70
67901;DHT22;54700;51.796;10.956;2023-08-31T12:52:46;14.50;90.90
67901;DHT22;54700;51.796;10.956;2023-08-31T12:55:13;14.50;90.40
67901;DHT22;54700;51.796;10.956;2023-08-31T12:57:42;14.80;90.70
67901;DHT22;54700;51.796;10.956;2023-08-31T13:00:09;15.10;90.10
67901;DHT22;54700;51.796;10.956;2023-08-31T13:02:38;15.30;87.10
67901;DHT22;54700;51.796;10.956;2023-08-31T13:05:06;15.50;87.50
67901;DHT22;54700;51.796;10.956;2023-08-31T13:07:34;15.70;87.20
67901;DHT22;54700;51.796;10.956;2023-08-31T13:10:02;15.80;87.50
67901;DHT22;54700;51.796;10.956;2023-08-31T13:12:30;15.80;87.50
67901;DHT22;54700;51.796;10.956;2023-08-31T13:14:59;15.70;85.90
67901;DHT22;54700;51.796;10.956;2023-08-31T13:17:28;15.60;85.70
67901;DHT22;54700;51.796;10.956;2023-08-31T13:19:55;15.60;85.60
67901;DHT22;54700;51.796;10.956;2023-08-31T13:22:24;15.60;84.10
67901;DHT22;54700;51.796;10.956;2023-08-31T13:24:51;15.40;82.70
67901;DHT22;54700;51.796;10.956;2023-08-31T13:27:19;15.40;86.30
67901;DHT22;54700;51.796;10.956;2023-08-31T13:29:45;15.30;87.10
67901;DHT22;54700;51.796;10.956;2023-08-31T13:32:14;15.30;88.10
67901;DHT22;54700;51.796;10.956;2023-08-31T13:34:41;15.20;87.40
67901;DHT22;54700;51.796;10.956;2023-08-31T13:37:08;15.10;87.50
67901;DHT22;54700;51.796;10.956;2023-08-31T13:39:36;14.90;88.90
67901;DHT22;54700;51.796;10.956;2023-08-31T13:42:05;14.80;90.70
67901;DHT22;54700;51.796;10.956;2023-08-31T13:44:33;14.50;90.70
67901;DHT22;54700;51.796;10.956;2023-08-31T13:47:00;14.40;93.10
67901;DHT22;54700;51.796;10.956;2023-08-31T13:49:29;14.30;93.70
67901;DHT22;54700;51.796;10.956;2023-08-31T13:51:56;14.30;93.60
67901;DHT22;54700;51.796;10.956;2023-08-31T13:54:23;14.40;93.10
67901;DHT22;54700;51.796;10.956;2023-08-31T13:56:51;14.20;92.70
67901;DHT22;54700;51.796;10.956;2023-08-31T13:59:18;14.10;93.00
67901;DHT22;54700;51.796;10.956;2023-08-31T14:01:45;14.00;93.30
67901;DHT22;54700;51.796;10.956;2023-08-31T14:04:12;13.90;94.40
67901;DHT22;54700;51.796;10.956;2023-08-31T14:06:40;13.80;94.30
67901;DHT22;54700;51.796;10.956;2023-08-31T14:09:07;13.60;93.50
67901;DHT22;54700;51.796;10.956;2023-08-31T14:11:34;13.50;93.10
67901;DHT22;54700;51.796;10.956;2023-08-31T14:14:02;13.50;93.00
67901;DHT22;54700;51.796;10.956;2023-08-31T14:16:36;13.40;94.90
67901;DHT22;54700;51.796;10.956;2023-08-31T14:19:03;13.20;94.50
67901;DHT22;54700;51.796;10.956;2023-08-31T14:21:31;13.10;95.40
67901;DHT22;54700;51.796;10.956;2023-08-31T14:23:59;13.00;96.10
67901;DHT22;54700;51.796;10.956;2023-08-31T14:26:26;12.90;97.00
67901;DHT22;54700;51.796;10.956;2023-08-31T14:28:53;12.90;98.30
67901;DHT22;54700;51.796;10.956;2023-08-31T14:31:21;13.00;98.70
67901;DHT22;54700;51.796;10.956;2023-08-31T14:33:48;13.00;98.70
67901;DHT22;54700;51.796;10.956;2023-08-31T14:36:15;13.00;98.70
67901;DHT22;54700;51.796;10.956;2023-08-31T14:38:42;13.10;98.70
67901;DHT22;54700;51.796;10.956;2023-08-31T14:41:12;13.20;99.60
67901;DHT22;54700;51.796;10.956;2023-08-31T14:43:39;13.50;99.90
67901;DHT22;54700;51.796;10.956;2023-08-31T14:46:06;13.70;99.90
67901;DHT22;54700;51.796;10.956;2023-08-31T14:48:32;14.00;99.90
67901;DHT22;54700;51.796;10.956;2023-08-31T14:51:00;14.40;98.90
67901;DHT22;54700;51.796;10.956;2023-08-31T14:53:27;14.70;97.60
67901;DHT22;54700;51.796;10.956;2023-08-31T14:55:54;14.80;95.60
67901;DHT22;54700;51.796;10.956;2023-08-31T14:58:23;15.00;95.90
67901;DHT22;54700;51.796;10.956;2023-08-31T15:00:50;15.10;94.80
67901;DHT22;54700;51.796;10.956;2023-08-31T15:03:22;15.30;94.10
67901;DHT22;54700;51.796;10.956;2023-08-31T15:05:49;15.40;93.00
67901;DHT22;54700;51.796;10.956;2023-08-31T15:08:17;15.50;93.80
67901;DHT22;54700;51.796;10.956;2023-08-31T15:10:45;15.60;94.60
67901;DHT22;54700;51.796;10.956;2023-08-31T15:13:12;15.50;92.70
67901;DHT22;54700;51.796;10.956;2023-08-31T15:15:41;15.50;92.20
67901;DHT22;54700;51.796;10.956;2023-08-31T15:18:10;15.50;92.80
67901;DHT22;54700;51.796;10.956;2023-08-31T15:20:39;15.50;93.40
67901;DHT22;54700;51.796;10.956;2023-08-31T15:23:08;15.50;91.50